Terminal Aerodrome Forecast
Issued by NWS Wakefield, VA

Home | Current Version | Previous Version | Text Only | Print | Product List | Glossary On
Versions: 1 2 3 4 5 6 7 8 9 10 11 12 13 14 15 16 17 18 19 20 21 22 23 24 25
000
FTUS41 KAKQ 231100 CCA
TAFECG
TAF COR
KECG 231143Z 2312/2412 26004KT P6SM OVC004
     FM231300 25006KT P6SM BKN007 BKN012
     FM231400 24006KT P6SM BKN012 BKN120
     FM231600 21009KT P6SM -SHRA BKN020 BKN120=

USA.gov is the U.S. government's official web portal to all federal, state and local government web resources and services.